KSTC

St Cloud Regional Airport

St Cloud, Minnesota, USA
METAR KSTC 182053Z VRB04KT 10SM FEW043 27/17 A3001 RMK AO2 SLP167 T02720167 56017
Observed Flight Rules
Aug-18 @ 20:53 UTC (60 minutes ago) Visual Flight Rules
Wind Visibility Clouds
Variable at 4 knots 10 miles
  • Few at 4,300' AGL
Temperatures Readings
Current 27°C / 81°F
Dewpoint 17°C / 63°F
Humidity 54%
Altimeter 30.01" Hg
Pressure 1016.7 hPa
Elevation 314
METAR KSTC 182053Z VRB04KT 10SM FEW043 27/17 A3001 RMK AO2 SLP167 T02720167 56017
Observed Flight Rules
Aug-18 @ 20:53 UTC
(60 minutes ago)
VFR
Wind Visibility
Variable at 4 knots 10 miles
Clouds
  • Few at 4,300' AGL
Temperature Dewpoint
27°C / 81°F 17°C / 63°F
Humidity Altimeter Pressure
54% 30.01" Hg 1016.7 hPa